createdAt,value
2018-05-29T00:00:26.691Z,61.48
2018-05-29T00:02:53.049Z,61.66
2018-05-29T00:05:20.294Z,62.22
2018-05-29T00:07:48.517Z,62.45
2018-05-29T00:10:14.942Z,62.64
2018-05-29T00:12:41.650Z,62.73
2018-05-29T00:15:08.077Z,62.77
2018-05-29T00:17:35.227Z,62.67
2018-05-29T00:20:02.439Z,62.67
2018-05-29T00:22:28.868Z,63.40
2018-05-29T00:24:55.264Z,64.02
2018-05-29T00:27:21.616Z,64.69
2018-05-29T00:29:48.073Z,65.01
2018-05-29T00:32:14.514Z,65.19
2018-05-29T00:34:40.906Z,65.01
2018-05-29T00:37:07.251Z,65.09
2018-05-29T00:39:33.952Z,64.98
2018-05-29T00:42:00.341Z,64.83
2018-05-29T00:44:26.705Z,65.05
2018-05-29T00:46:53.887Z,64.67
2018-05-29T00:49:20.270Z,64.99
2018-05-29T00:51:46.626Z,65.49
2018-05-29T00:54:13.085Z,65.47
2018-05-29T00:56:39.505Z,65.50
2018-05-29T00:59:06.226Z,65.27
2018-05-29T01:01:33.368Z,64.96
2018-05-29T01:04:00.726Z,65.76
2018-05-29T01:06:27.859Z,66.17
2018-05-29T01:08:54.219Z,66.56
2018-05-29T01:11:20.693Z,66.92
2018-05-29T01:13:47.129Z,66.39
2018-05-29T01:16:13.615Z,66.76
2018-05-29T01:18:40.096Z,66.57
2018-05-29T01:21:06.575Z,66.55
2018-05-29T01:23:33.831Z,66.44
2018-05-29T01:26:00.942Z,66.19
2018-05-29T01:28:27.382Z,67.21
2018-05-29T01:30:53.747Z,67.60
2018-05-29T01:33:20.155Z,67.38
2018-05-29T01:35:46.659Z,67.22
2018-05-29T01:38:13.005Z,67.56
2018-05-29T01:40:41.224Z,67.89
2018-05-29T01:43:07.643Z,67.83
2018-05-29T01:45:34.800Z,68.07
2018-05-29T01:48:02.642Z,68.11
2018-05-29T01:50:29.816Z,68.33
2018-05-29T01:52:56.999Z,67.93
2018-05-29T01:55:23.521Z,67.93
2018-05-29T01:57:50.060Z,67.63
2018-05-29T02:00:16.458Z,67.90
2018-05-29T02:02:43.575Z,67.86
2018-05-29T02:05:09.963Z,68.16
2018-05-29T02:07:36.314Z,67.92
2018-05-29T02:10:02.892Z,68.41
2018-05-29T02:12:29.668Z,68.55
2018-05-29T02:14:56.201Z,68.84
2018-05-29T02:17:22.679Z,68.67
2018-05-29T02:19:49.072Z,68.53
2018-05-29T02:22:15.484Z,68.47
2018-05-29T02:24:42.657Z,69.12
2018-05-29T02:27:09.047Z,69.45
2018-05-29T02:29:35.444Z,69.62
2018-05-29T02:32:01.851Z,69.90
2018-05-29T02:34:28.223Z,69.87
2018-05-29T02:36:54.663Z,69.41
2018-05-29T02:39:21.115Z,69.08
2018-05-29T02:41:47.465Z,69.14
2018-05-29T02:44:13.898Z,69.57
2018-05-29T02:46:40.266Z,69.89
2018-05-29T02:49:06.623Z,70.13
2018-05-29T02:51:32.993Z,70.20
2018-05-29T02:54:00.099Z,69.66
2018-05-29T02:56:33.491Z,69.97
2018-05-29T02:58:59.907Z,69.77
2018-05-29T03:01:26.274Z,69.60
2018-05-29T03:03:52.673Z,69.11
2018-05-29T03:06:19.045Z,68.55
2018-05-29T03:08:46.191Z,68.52
2018-05-29T03:11:12.609Z,68.47
2018-05-29T03:13:39.132Z,68.45
2018-05-29T03:16:05.820Z,68.76
2018-05-29T03:18:32.954Z,68.63
2018-05-29T03:21:00.179Z,68.53
2018-05-29T03:23:26.558Z,67.98
2018-05-29T03:25:52.988Z,67.85
2018-05-29T03:28:19.410Z,68.02
2018-05-29T03:30:45.850Z,68.06
2018-05-29T03:33:13.022Z,67.47
2018-05-29T03:35:39.444Z,67.46
2018-05-29T03:38:05.949Z,66.50
2018-05-29T03:40:32.375Z,66.23
2018-05-29T03:42:58.769Z,65.67
2018-05-29T03:45:25.268Z,65.87
2018-05-29T03:47:52.394Z,66.86
2018-05-29T03:50:18.919Z,67.29
2018-05-29T03:52:45.317Z,67.09
2018-05-29T03:55:12.864Z,67.43
2018-05-29T03:57:40.110Z,66.97
2018-05-29T04:00:06.942Z,67.02
2018-05-29T04:02:33.406Z,66.79
2018-05-29T04:04:59.880Z,66.62
2018-05-29T04:07:26.322Z,66.85
2018-05-29T04:09:53.608Z,66.97
2018-05-29T04:12:20.733Z,66.86
2018-05-29T04:14:47.877Z,66.88
2018-05-29T04:17:15.349Z,66.64
2018-05-29T04:19:42.483Z,66.97
2018-05-29T04:22:09.701Z,67.25
2018-05-29T04:24:36.114Z,67.75
2018-05-29T04:27:02.550Z,68.14
2018-05-29T04:29:29.029Z,67.99
2018-05-29T04:31:56.407Z,68.07
2018-05-29T04:34:22.876Z,68.23
2018-05-29T04:36:49.573Z,68.62
2018-05-29T04:39:16.784Z,68.67
2018-05-29T04:41:43.272Z,68.31
2018-05-29T04:44:09.701Z,68.23
2018-05-29T04:46:36.177Z,68.65
2018-05-29T04:49:02.636Z,68.94
2018-05-29T04:51:29.005Z,68.98
2018-05-29T04:53:55.385Z,68.28
2018-05-29T04:56:21.861Z,67.77
2018-05-29T04:58:48.380Z,68.11
2018-05-29T05:01:15.491Z,68.43
2018-05-29T05:03:42.182Z,68.35
2018-05-29T05:06:08.821Z,68.04
2018-05-29T05:08:35.197Z,68.33
2018-05-29T05:11:01.665Z,68.39
2018-05-29T05:13:28.094Z,67.82
2018-05-29T05:15:55.209Z,67.50
2018-05-29T05:18:21.640Z,66.69
2018-05-29T05:20:48.343Z,66.40
2018-05-29T05:23:14.732Z,65.92
2018-05-29T05:25:41.103Z,66.93
2018-05-29T05:28:07.849Z,66.89
2018-05-29T05:30:34.259Z,66.55
2018-05-29T05:33:01.358Z,65.13
2018-05-29T05:35:27.809Z,65.18
2018-05-29T05:37:54.190Z,66.25
2018-05-29T05:40:20.679Z,66.34
2018-05-29T05:42:47.085Z,66.14
2018-05-29T05:45:13.466Z,66.48
2018-05-29T05:47:40.610Z,66.11
2018-05-29T05:50:07.742Z,66.12
2018-05-29T05:52:34.102Z,66.93
2018-05-29T05:55:01.237Z,65.88
2018-05-29T05:57:27.612Z,66.18
2018-05-29T05:59:54.036Z,66.34
2018-05-29T06:02:20.388Z,65.34
2018-05-29T06:04:46.785Z,65.50
2018-05-29T06:07:14.038Z,65.34
2018-05-29T06:09:40.414Z,65.23
2018-05-29T06:12:06.806Z,64.05
2018-05-29T06:14:33.175Z,63.85
2018-05-29T06:16:59.704Z,63.29
2018-05-29T06:19:26.204Z,62.03
2018-05-29T06:21:52.810Z,62.45
2018-05-29T06:24:19.355Z,62.31
2018-05-29T06:26:45.735Z,62.14
2018-05-29T06:29:12.109Z,61.49
2018-05-29T06:31:38.668Z,61.39
2018-05-29T06:34:05.793Z,60.74
2018-05-29T06:36:32.670Z,60.01
2018-05-29T06:39:00.288Z,60.31
2018-05-29T06:41:26.734Z,59.75
2018-05-29T06:43:53.502Z,59.04
2018-05-29T06:46:20.613Z,57.30
2018-05-29T06:48:46.989Z,57.15
2018-05-29T06:51:13.378Z,56.39
2018-05-29T06:53:39.869Z,55.86
2018-05-29T06:56:06.370Z,56.49
2018-05-29T06:58:33.501Z,56.80
2018-05-29T07:01:00.173Z,57.36
2018-05-29T07:03:27.306Z,57.88
2018-05-29T07:05:54.506Z,56.64
2018-05-29T07:08:21.104Z,57.07
2018-05-29T07:10:48.236Z,57.68
2018-05-29T07:13:15.362Z,58.00
2018-05-29T07:15:41.812Z,57.46
2018-05-29T07:18:08.415Z,57.19
2018-05-29T07:20:34.822Z,56.51
2018-05-29T07:23:01.180Z,56.14
2018-05-29T07:25:27.584Z,56.51
2018-05-29T07:27:54.005Z,55.38
2018-05-29T07:30:21.112Z,54.68
2018-05-29T07:32:47.794Z,54.85
2018-05-29T07:35:14.959Z,54.77
2018-05-29T07:37:41.365Z,54.55
2018-05-29T07:40:08.466Z,54.58
2018-05-29T07:42:34.882Z,53.83
2018-05-29T07:45:01.215Z,53.42
2018-05-29T07:47:28.704Z,52.13
2018-05-29T07:49:55.045Z,53.37
2018-05-29T07:52:21.468Z,52.77
2018-05-29T07:54:47.903Z,52.26
2018-05-29T07:57:14.272Z,52.57
2018-05-29T07:59:40.691Z,53.05
2018-05-29T08:02:07.831Z,53.94
2018-05-29T08:04:34.966Z,53.60
2018-05-29T08:07:01.445Z,54.36
2018-05-29T08:09:27.813Z,54.08
2018-05-29T08:11:54.196Z,53.03
2018-05-29T08:14:21.356Z,52.93
2018-05-29T08:16:47.763Z,52.90
2018-05-29T08:19:15.042Z,52.67
2018-05-29T08:21:41.420Z,53.35
2018-05-29T08:24:07.864Z,52.63
2018-05-29T08:26:34.298Z,53.33
2018-05-29T08:29:00.661Z,54.50
2018-05-29T08:31:27.813Z,53.96
2018-05-29T08:33:54.959Z,54.45
2018-05-29T08:36:21.594Z,54.40
2018-05-29T08:38:48.710Z,55.29
2018-05-29T08:41:15.061Z,55.39
2018-05-29T08:43:42.220Z,54.13
2018-05-29T08:46:09.344Z,53.53
2018-05-29T08:48:35.870Z,53.78
2018-05-29T08:51:02.257Z,53.64
2018-05-29T08:53:28.648Z,52.83
2018-05-29T08:55:55.084Z,52.85
2018-05-29T08:58:21.572Z,52.94
2018-05-29T09:00:47.948Z,52.46
2018-05-29T09:03:14.331Z,51.11
2018-05-29T09:05:40.812Z,50.46
2018-05-29T09:08:07.177Z,50.94
2018-05-29T09:10:33.544Z,51.02
2018-05-29T09:12:59.907Z,49.67
2018-05-29T09:15:26.291Z,52.23
2018-05-29T09:17:52.716Z,51.55
2018-05-29T09:20:19.442Z,51.48
2018-05-29T09:22:45.856Z,51.98
2018-05-29T09:25:12.971Z,51.07
2018-05-29T09:27:39.393Z,50.08
2018-05-29T09:30:05.732Z,48.90
2018-05-29T09:32:32.162Z,48.76
2018-05-29T09:34:58.752Z,50.25
2018-05-29T09:37:25.906Z,50.66
2018-05-29T09:39:53.026Z,50.67
2018-05-29T09:42:19.379Z,51.66
2018-05-29T09:44:46.595Z,50.03
2018-05-29T09:47:13.060Z,50.03
2018-05-29T09:49:40.161Z,51.11
2018-05-29T09:52:06.572Z,51.77
2018-05-29T09:54:33.062Z,50.67
2018-05-29T09:56:59.461Z,51.31
2018-05-29T09:59:25.878Z,52.55
2018-05-29T10:01:52.289Z,54.11
2018-05-29T10:04:19.026Z,54.13
2018-05-29T10:06:45.762Z,53.29
2018-05-29T10:09:12.874Z,52.62
2018-05-29T10:11:39.361Z,52.44
2018-05-29T10:14:05.825Z,51.63
2018-05-29T10:16:32.528Z,49.96
2018-05-29T10:18:58.921Z,50.19
2018-05-29T10:21:26.045Z,50.95
2018-05-29T10:23:52.419Z,51.19
2018-05-29T10:26:19.552Z,50.69
2018-05-29T10:28:46.229Z,48.79
2018-05-29T10:31:12.588Z,48.14
2018-05-29T10:33:39.387Z,46.38
2018-05-29T10:36:06.514Z,47.74
2018-05-29T10:38:33.057Z,47.25
2018-05-29T10:41:00.204Z,47.06
2018-05-29T10:43:26.563Z,46.17
2018-05-29T10:45:53.295Z,46.78
2018-05-29T10:48:19.745Z,45.78
2018-05-29T10:50:46.247Z,44.77
2018-05-29T10:53:13.409Z,44.02
2018-05-29T10:55:40.519Z,44.78
2018-05-29T10:58:06.876Z,46.33
2018-05-29T11:00:34.241Z,46.91
2018-05-29T11:05:33.820Z,46.70
2018-05-29T11:08:00.268Z,45.33
2018-05-29T11:10:26.776Z,45.62
2018-05-29T11:12:53.118Z,45.89
2018-05-29T11:15:19.521Z,45.33
2018-05-29T11:17:46.061Z,46.60
2018-05-29T11:20:12.916Z,47.00
2018-05-29T11:22:39.303Z,43.68
2018-05-29T11:25:06.405Z,44.23
2018-05-29T11:27:32.789Z,45.57
2018-05-29T11:30:00.023Z,44.07
2018-05-29T11:32:27.165Z,43.81
2018-05-29T11:34:53.829Z,44.87
2018-05-29T11:37:20.942Z,46.00
2018-05-29T11:39:47.413Z,46.82
2018-05-29T11:42:14.613Z,47.46
2018-05-29T11:44:40.996Z,46.66
2018-05-29T11:47:07.616Z,46.04
2018-05-29T11:49:34.746Z,47.08
2018-05-29T11:52:01.144Z,45.45
2018-05-29T11:54:27.545Z,44.13
2018-05-29T11:56:54.015Z,44.25
2018-05-29T11:59:20.383Z,46.04
2018-05-29T12:01:46.801Z,44.41
2018-05-29T12:04:13.246Z,44.55
2018-05-29T12:06:39.658Z,43.82
2018-05-29T12:09:06.050Z,42.31
2018-05-29T12:11:32.463Z,44.89
2018-05-29T12:13:59.829Z,46.73
2018-05-29T12:16:27.017Z,45.52
2018-05-29T12:18:53.497Z,46.14
2018-05-29T12:21:20.978Z,47.48
2018-05-29T12:23:47.399Z,48.54
2018-05-29T12:26:14.635Z,47.50
2018-05-29T12:28:40.995Z,48.22
2018-05-29T12:31:07.400Z,48.60
2018-05-29T12:33:34.555Z,50.11
2018-05-29T12:36:03.266Z,47.74
2018-05-29T12:38:36.725Z,47.45
2018-05-29T12:41:03.086Z,47.38
2018-05-29T12:43:29.456Z,50.01
2018-05-29T12:45:55.901Z,50.41
2018-05-29T12:48:22.253Z,52.68
2018-05-29T12:50:50.124Z,53.98
2018-05-29T12:53:16.523Z,55.59
2018-05-29T12:55:42.891Z,54.41
2018-05-29T12:58:10.033Z,53.63
2018-05-29T13:00:36.407Z,51.91
2018-05-29T13:03:02.837Z,51.47
2018-05-29T13:05:29.281Z,50.64
2018-05-29T13:07:56.337Z,51.23
2018-05-29T13:10:22.896Z,51.21
2018-05-29T13:12:49.283Z,50.71
2018-05-29T13:15:15.677Z,51.28
2018-05-29T13:17:43.597Z,48.43
2018-05-29T13:20:09.969Z,47.73
2018-05-29T13:22:36.407Z,49.98
2018-05-29T13:25:02.839Z,50.96
2018-05-29T13:27:29.230Z,52.47
2018-05-29T13:29:55.764Z,54.08
2018-05-29T13:32:22.157Z,54.06
2018-05-29T13:34:49.257Z,54.27
2018-05-29T13:37:15.714Z,56.07
2018-05-29T13:39:42.381Z,56.98
2018-05-29T13:42:09.512Z,58.18
2018-05-29T13:44:36.614Z,58.95
2018-05-29T13:47:03.049Z,60.05
2018-05-29T13:49:30.196Z,59.69
2018-05-29T13:51:57.017Z,59.09
2018-05-29T13:54:23.391Z,58.75
2018-05-29T13:56:49.831Z,59.87
2018-05-29T13:59:16.338Z,60.04
2018-05-29T14:01:42.718Z,60.39
2018-05-29T14:04:09.983Z,60.25
2018-05-29T14:06:37.292Z,61.91
2018-05-29T14:09:04.687Z,62.18
2018-05-29T14:11:31.059Z,61.88
2018-05-29T14:13:57.439Z,62.02
2018-05-29T14:16:23.803Z,62.82
2018-05-29T14:18:50.177Z,63.47
2018-05-29T14:21:16.586Z,64.04
2018-05-29T14:23:43.054Z,64.54
2018-05-29T14:26:09.408Z,64.89
2018-05-29T14:28:36.495Z,65.14
2018-05-29T14:31:03.326Z,65.80
2018-05-29T14:33:29.719Z,65.53
2018-05-29T14:35:56.114Z,66.14
2018-05-29T14:38:22.835Z,67.50
2018-05-29T14:40:49.188Z,69.42
2018-05-29T14:43:15.554Z,69.23
2018-05-29T14:45:41.942Z,69.98
2018-05-29T14:48:08.405Z,71.28
2018-05-29T14:50:34.777Z,71.33
2018-05-29T14:53:01.213Z,71.77
2018-05-29T14:55:27.578Z,71.65
2018-05-29T14:57:53.965Z,70.74
2018-05-29T15:00:20.399Z,71.57
2018-05-29T15:02:47.517Z,71.59
2018-05-29T15:05:14.012Z,70.13
2018-05-29T15:07:40.621Z,68.79
2018-05-29T15:10:07.726Z,68.10
2018-05-29T15:12:34.170Z,66.38
2018-05-29T15:15:02.029Z,65.23
2018-05-29T15:17:28.716Z,64.58
2018-05-29T15:19:55.110Z,63.34
2018-05-29T15:22:21.473Z,61.33
2018-05-29T15:24:47.841Z,60.39
2018-05-29T15:27:14.246Z,59.98
2018-05-29T15:29:40.616Z,58.42
2018-05-29T15:32:07.064Z,57.91
2018-05-29T15:34:33.454Z,57.91
2018-05-29T15:36:59.928Z,57.64
2018-05-29T15:39:26.605Z,57.29
2018-05-29T15:41:53.813Z,57.45
2018-05-29T15:44:20.171Z,56.83
2018-05-29T15:46:46.567Z,56.01
2018-05-29T15:49:13.016Z,56.28
2018-05-29T15:51:39.364Z,55.59
2018-05-29T15:54:05.813Z,55.65
2018-05-29T15:56:32.922Z,55.24
2018-05-29T15:58:59.382Z,55.34
2018-05-29T16:01:26.757Z,53.73
2018-05-29T16:03:53.860Z,53.37
2018-05-29T16:06:20.244Z,51.23
2018-05-29T16:08:46.788Z,50.49
2018-05-29T16:11:13.193Z,46.82
2018-05-29T16:13:40.447Z,40.16
2018-05-29T16:16:07.755Z,33.83
2018-05-29T16:18:34.233Z,32.05
2018-05-29T16:21:01.333Z,30.38
2018-05-29T16:23:27.747Z,26.45
2018-05-29T16:25:54.094Z,27.06
2018-05-29T16:28:20.477Z,25.94
2018-05-29T16:30:47.698Z,31.19
2018-05-29T16:33:14.101Z,34.11
2018-05-29T16:35:40.665Z,33.05
2018-05-29T16:38:07.070Z,36.46
2018-05-29T16:40:33.609Z,35.11
2018-05-29T16:43:01.310Z,33.56
2018-05-29T16:45:27.730Z,30.24
2018-05-29T16:47:54.415Z,28.75
2018-05-29T16:50:21.938Z,28.77
2018-05-29T16:52:48.542Z,29.19
2018-05-29T16:55:15.030Z,29.85
2018-05-29T16:57:42.140Z,27.40
2018-05-29T17:00:08.561Z,28.46
2018-05-29T17:02:34.917Z,28.49
2018-05-29T17:05:01.354Z,27.73
2018-05-29T17:07:27.708Z,27.25
2018-05-29T17:09:54.913Z,26.80
2018-05-29T17:12:21.279Z,27.68
2018-05-29T17:14:48.420Z,28.08
2018-05-29T17:17:14.997Z,29.25
2018-05-29T17:19:41.408Z,29.22
2018-05-29T17:22:08.507Z,30.34
2018-05-29T17:24:34.929Z,28.87
2018-05-29T17:27:01.643Z,27.32
2018-05-29T17:29:28.073Z,28.83
2018-05-29T17:31:54.509Z,29.62
2018-05-29T17:34:21.633Z,29.04
2018-05-29T17:36:48.741Z,30.26
2018-05-29T17:39:15.311Z,31.60
2018-05-29T17:41:41.762Z,34.97
2018-05-29T17:44:08.863Z,35.40
2018-05-29T17:46:35.263Z,35.23
2018-05-29T17:49:02.225Z,36.46
2018-05-29T17:51:28.672Z,36.46
2018-05-29T17:53:55.086Z,41.12
2018-05-29T17:56:21.524Z,44.92
2018-05-29T17:58:47.961Z,45.71
2018-05-29T18:01:14.327Z,48.27
2018-05-29T18:03:40.708Z,50.22
2018-05-29T18:06:07.117Z,51.87
2018-05-29T18:08:35.104Z,52.55
2018-05-29T18:11:01.704Z,52.20
2018-05-29T18:13:28.878Z,52.73
2018-05-29T18:15:55.397Z,53.32
2018-05-29T18:18:22.767Z,53.80
2018-05-29T18:20:55.007Z,53.82
2018-05-29T18:23:21.534Z,53.36
2018-05-29T18:25:48.814Z,54.42
2018-05-29T18:28:16.044Z,55.16
2018-05-29T18:30:42.529Z,55.46
2018-05-29T18:33:10.012Z,54.92
2018-05-29T18:35:36.461Z,55.41
2018-05-29T18:38:03.483Z,55.91
2018-05-29T18:40:30.058Z,55.65
2018-05-29T18:42:56.479Z,56.04
2018-05-29T18:45:22.872Z,56.15
2018-05-29T18:47:49.435Z,56.45
2018-05-29T18:50:15.999Z,56.64
2018-05-29T18:52:43.086Z,57.30
2018-05-29T18:55:09.611Z,57.25
2018-05-29T18:57:36.620Z,58.06
2018-05-29T19:00:03.837Z,58.71
2018-05-29T19:02:30.477Z,59.34
2018-05-29T19:04:56.928Z,59.77
2018-05-29T19:07:23.370Z,60.24
2018-05-29T19:09:50.310Z,59.96
2018-05-29T19:12:16.679Z,60.41
2018-05-29T19:14:43.824Z,60.58
2018-05-29T19:17:12.947Z,61.71
2018-05-29T19:19:39.504Z,61.30
2018-05-29T19:22:06.279Z,61.17
2018-05-29T19:24:33.477Z,61.61
2018-05-29T19:27:00.810Z,61.91
2018-05-29T19:29:28.061Z,62.67
2018-05-29T19:31:55.599Z,63.22
2018-05-29T19:34:22.800Z,63.79
2018-05-29T19:36:49.206Z,64.28
2018-05-29T19:39:15.640Z,63.97
2018-05-29T19:41:42.720Z,63.97
2018-05-29T19:44:09.237Z,64.33
2018-05-29T19:46:35.757Z,64.77
2018-05-29T19:49:02.202Z,64.69
2018-05-29T19:51:28.651Z,65.27
2018-05-29T19:53:55.232Z,65.66
2018-05-29T19:56:23.246Z,66.32
2018-05-29T19:58:49.889Z,66.55
2018-05-29T20:01:16.369Z,66.73
2018-05-29T20:03:42.950Z,67.14
2018-05-29T20:06:09.397Z,67.11
2018-05-29T20:08:35.793Z,66.39
2018-05-29T20:11:02.277Z,66.68
2018-05-29T20:13:28.796Z,66.96
2018-05-29T20:15:55.437Z,67.20
2018-05-29T20:18:22.879Z,67.89
2018-05-29T20:20:49.626Z,67.62
2018-05-29T20:23:16.581Z,68.25
2018-05-29T20:25:42.991Z,68.82
2018-05-29T20:28:09.392Z,69.18
2018-05-29T20:30:36.533Z,69.83
2018-05-29T20:33:03.649Z,69.48
2018-05-29T20:35:30.844Z,69.60
2018-05-29T20:37:58.336Z,70.03
2018-05-29T20:40:24.722Z,70.17
2018-05-29T20:42:52.035Z,71.03
2018-05-29T20:45:18.904Z,70.96
2018-05-29T20:47:45.287Z,70.74
2018-05-29T20:50:12.452Z,71.02
2018-05-29T20:52:39.144Z,71.04
2018-05-29T20:55:06.374Z,70.34
2018-05-29T20:57:34.387Z,70.56
2018-05-29T21:00:01.593Z,71.01
2018-05-29T21:02:28.070Z,71.38
2018-05-29T21:04:54.530Z,71.14
2018-05-29T21:07:20.967Z,71.14
2018-05-29T21:09:47.414Z,71.54
2018-05-29T21:12:13.897Z,72.26
2018-05-29T21:14:40.342Z,72.34
2018-05-29T21:17:07.393Z,73.04
2018-05-29T21:19:33.993Z,72.96
2018-05-29T21:22:02.161Z,72.76
2018-05-29T21:24:28.709Z,73.50
2018-05-29T21:26:55.999Z,73.77
2018-05-29T21:29:22.741Z,73.68
2018-05-29T21:31:49.225Z,73.41
2018-05-29T21:34:15.752Z,73.63
2018-05-29T21:36:42.151Z,73.92
2018-05-29T21:39:08.761Z,74.00
2018-05-29T21:41:35.201Z,74.23
2018-05-29T21:44:01.592Z,74.30
2018-05-29T21:46:28.275Z,74.30
2018-05-29T21:48:54.767Z,74.17
2018-05-29T21:51:21.179Z,74.73
2018-05-29T21:53:47.608Z,74.46
2018-05-29T21:56:14.049Z,74.84
2018-05-29T21:58:40.470Z,74.68
2018-05-29T22:01:07.141Z,74.89
2018-05-29T22:03:33.534Z,74.96
2018-05-29T22:05:59.979Z,74.75
2018-05-29T22:08:26.392Z,74.86
2018-05-29T22:10:52.795Z,75.27
2018-05-29T22:13:19.316Z,75.54
2018-05-29T22:15:46.597Z,75.55
2018-05-29T22:18:12.989Z,75.63
2018-05-29T22:20:39.729Z,75.75
2018-05-29T22:23:06.189Z,75.87
2018-05-29T22:25:33.328Z,75.75
2018-05-29T22:28:00.439Z,76.10
2018-05-29T22:30:26.883Z,76.97
2018-05-29T22:32:53.247Z,77.69
2018-05-29T22:35:19.803Z,77.91
2018-05-29T22:37:46.177Z,77.96
2018-05-29T22:40:12.689Z,78.47
2018-05-29T22:42:39.168Z,78.74
2018-05-29T22:45:06.308Z,79.25
2018-05-29T22:47:32.742Z,79.40
2018-05-29T22:49:59.149Z,79.87
2018-05-29T22:52:25.568Z,80.20
2018-05-29T22:54:52.044Z,80.73
2018-05-29T22:57:18.698Z,80.88
2018-05-29T22:59:45.541Z,80.97
2018-05-29T23:02:12.767Z,80.60
2018-05-29T23:04:39.178Z,80.13
2018-05-29T23:07:05.697Z,80.23
2018-05-29T23:09:32.319Z,80.25
2018-05-29T23:11:58.710Z,80.34
2018-05-29T23:14:25.149Z,79.85
2018-05-29T23:16:52.329Z,79.47
2018-05-29T23:19:18.836Z,79.40
2018-05-29T23:21:46.050Z,78.65
2018-05-29T23:24:12.876Z,78.88
2018-05-29T23:26:39.289Z,78.74
2018-05-29T23:29:05.695Z,79.08
2018-05-29T23:31:32.914Z,79.47
2018-05-29T23:33:59.320Z,79.27
2018-05-29T23:36:25.925Z,79.68
2018-05-29T23:38:54.089Z,79.97
2018-05-29T23:41:21.300Z,80.44
2018-05-29T23:43:47.677Z,80.56
2018-05-29T23:46:14.830Z,81.28
2018-05-29T23:48:42.426Z,81.05
2018-05-29T23:51:08.770Z,80.53
2018-05-29T23:53:35.161Z,80.67
2018-05-29T23:56:01.512Z,80.60
2018-05-29T23:58:27.957Z,80.45
